Gujranwala Weather



Gujranwala's Current Weather

Temprature 14o smoke

smoke

Rain: 0 %

Min Temprature14o
Max Temprature14o
Humidity76
Wind Speed0.81 m/h
Sun Rise06:16:46
Sun Set17:17:03
Current Time: 28-Oct-2020 08:12:41
Lat/Lon: 32.16, 74.19




Gujranwala's Geo Location



Gujranwala's Weather Forecast

Time Overall Temp Min Temp Max Temp Humidity Wind Speed Rain
28-Oct-2020 (Wed)
11:00:00 clear sky 21.950 21.950 30.300 45 0.93 m/h 0 %
14:00:00 clear sky 28.570 28.570 32.590 25 1.05 m/h 0 %
17:00:00 clear sky 25.920 25.920 26.730 18 0.86 m/h 0 %
20:00:00 clear sky 22.690 22.690 22.760 19 1.84 m/h 0 %
23:00:00 clear sky 20.270 20.270 20.270 23 2.24 m/h 0 %
29-Oct-2020 (Thu)
02:00:00 clear sky 18.190 18.190 18.190 26 2.04 m/h 0 %
05:00:00 clear sky 16.740 16.740 16.740 29 1.77 m/h 0 %
08:00:00 clear sky 20.750 20.750 20.750 24 2.43 m/h 0 %
11:00:00 clear sky 29.270 29.270 29.270 14 2.39 m/h 0 %
14:00:00 clear sky 32.780 32.780 32.780 11 1.21 m/h 0 %
17:00:00 clear sky 27.310 27.310 27.310 15 1.59 m/h 0 %
20:00:00 clear sky 22.950 22.950 22.950 20 1.88 m/h 0 %
23:00:00 clear sky 20.160 20.160 20.160 24 1.78 m/h 0 %
30-Oct-2020 (Fri)
02:00:00 clear sky 18.050 18.050 18.050 27 1.26 m/h 0 %
05:00:00 clear sky 17.020 17.020 17.020 29 1.5 m/h 0 %
08:00:00 clear sky 21.270 21.270 21.270 22 1.85 m/h 0 %
11:00:00 clear sky 30.160 30.160 30.160 13 1.45 m/h 0 %
14:00:00 clear sky 32.520 32.520 32.520 11 1.93 m/h 0 %
17:00:00 clear sky 27.560 27.560 27.560 15 2.58 m/h 0 %
20:00:00 clear sky 22.240 22.240 22.240 20 2.98 m/h 0 %
23:00:00 clear sky 19.280 19.280 19.280 24 2.84 m/h 0 %
31-Oct-2020 (Sat)
02:00:00 clear sky 17.030 17.030 17.030 27 2.36 m/h 0 %
05:00:00 clear sky 15.270 15.270 15.270 30 2.27 m/h 0 %
08:00:00 clear sky 19.520 19.520 19.520 24 1.95 m/h 0 %
11:00:00 clear sky 28.640 28.640 28.640 14 2.87 m/h 0 %
14:00:00 clear sky 32.310 32.310 32.310 10 3.68 m/h 0 %
17:00:00 clear sky 26.770 26.770 26.770 14 2.55 m/h 0 %
20:00:00 clear sky 21.680 21.680 21.680 19 3.1 m/h 0 %
23:00:00 clear sky 18.570 18.570 18.570 24 2.12 m/h 0 %
01-Nov-2020 (Sun)
02:00:00 clear sky 16.760 16.760 16.760 26 2 m/h 0 %
05:00:00 clear sky 15.190 15.190 15.190 28 1.4 m/h 0 %
08:00:00 clear sky 19.750 19.750 19.750 22 1.32 m/h 0 %
11:00:00 clear sky 28.870 28.870 28.870 12 2.57 m/h 0 %
14:00:00 clear sky 32.140 32.140 32.140 9 3.38 m/h 0 %
17:00:00 clear sky 25.910 25.910 25.910 14 1.99 m/h 0 %
20:00:00 clear sky 20.490 20.490 20.490 21 0.4 m/h 0 %
23:00:00 clear sky 18.010 18.010 18.010 24 0.62 m/h 0 %
02-Nov-2020 (Mon)
02:00:00 clear sky 17.120 17.120 17.120 26 1.23 m/h 0 %
05:00:00 clear sky 15.210 15.210 15.210 29 0.77 m/h 0 %
08:00:00 clear sky 20.350 20.350 20.350 21 1.53 m/h 0 %

Famous Cities (60)